Santa Rosa, Brazil
Current Conditions -  °F | °C
As of 6:00 AM on Sunday 21 Dec 2014 (Local Time) from SARP Reporting Station
Light Rain Light Rain  
Wind Chill: 70°   Ceiling: 5000
Heat Index: 70°   Visibility: 6mi
Dew Point: 68°   Wind: 8mph
Humidity: 94%   Direction: 140°SE
Pressure: 29.53"   Gusts: NA
Location:  27.87°S, 54.48°W
Report Text: SARP 210800Z 14007KT 9999 -RA SCT015 SCT030 BKN050 21/20 Q1000
Loading
Personal Weather Stations






























Interactive Weather Map New forecast layout! Learn more

10-Day Weather Forecast

Advertisements
Track Severe Weather on mobile